Time,TemperatureF,DewpointF,PressureIn,WindDirection,WindDirectionDegrees,WindSpeedMPH,WindSpeedGustMPH,Humidity,HourlyPrecipIn,Conditions,Clouds,dailyrainin,SolarRadiationWatts/m^2,SoftwareType,DateUTC
2013-03-24 00:00:00,75.7,72.7,29.89,SSE,149,1.0,4.0,90,0.00,,,0.00,0.0,meteohub,2013-03-24 04:00:00,
2013-03-24 00:05:00,75.7,72.7,29.89,SSE,157,2.0,4.0,90,0.00,,,0.00,0.0,meteohub,2013-03-24 04:05:00,
2013-03-24 00:10:00,75.7,72.7,29.89,SSE,154,2.0,4.0,90,0.00,,,0.00,0.0,meteohub,2013-03-24 04:10:00,
2013-03-24 00:15:00,75.7,72.7,29.89,SE,145,2.0,4.0,90,0.00,,,0.00,0.0,meteohub,2013-03-24 04:15:00,
2013-03-24 00:20:00,75.7,72.7,29.89,SE,140,3.0,4.0,90,0.00,,,0.00,0.0,meteohub,2013-03-24 04:20:00,
2013-03-24 00:25:00,75.6,72.7,29.88,SE,146,2.0,4.0,91,0.00,,,0.00,0.0,meteohub,2013-03-24 04:25:00,
2013-03-24 00:30:00,75.6,72.5,29.88,SE,143,2.0,4.0,90,0.00,,,0.00,0.0,meteohub,2013-03-24 04:30:00,
2013-03-24 00:35:00,75.4,72.5,29.88,SE,145,0.0,3.0,91,0.00,,,0.00,0.0,meteohub,2013-03-24 04:35:00,
2013-03-24 00:40:00,75.4,72.5,29.88,SE,143,3.0,3.0,91,0.00,,,0.00,0.0,meteohub,2013-03-24 04:40:00,
2013-03-24 00:45:00,75.2,72.3,29.88,SE,138,1.0,3.0,91,0.00,,,0.00,0.0,meteohub,2013-03-24 04:45:00,
2013-03-24 00:50:00,75.4,72.5,29.88,SE,144,1.0,3.0,91,0.00,,,0.00,0.0,meteohub,2013-03-24 04:50:00,
2013-03-24 00:55:00,75.4,72.5,29.88,SSE,158,2.0,3.0,91,0.00,,,0.00,0.0,meteohub,2013-03-24 04:55:00,
2013-03-24 01:00:00,75.4,72.5,29.88,SSE,150,2.0,3.0,91,0.00,,,0.00,0.0,meteohub,2013-03-24 05:00:00,
2013-03-24 01:05:00,75.4,72.5,29.88,SSE,162,3.0,3.0,91,0.00,,,0.00,0.0,meteohub,2013-03-24 05:05:00,
2013-03-24 01:10:00,75.4,72.5,29.88,SSE,167,3.0,4.0,91,0.00,,,0.00,0.0,meteohub,2013-03-24 05:10:00,
2013-03-24 01:15:00,75.4,72.5,29.87,SE,146,2.0,4.0,91,0.00,,,0.00,0.0,meteohub,2013-03-24 05:15:00,
2013-03-24 01:20:00,75.4,72.5,29.87,SSE,164,1.0,4.0,91,0.00,,,0.00,0.0,meteohub,2013-03-24 05:20:00,
2013-03-24 01:25:00,75.2,72.3,29.87,SSE,160,2.0,3.0,91,0.00,,,0.00,0.0,meteohub,2013-03-24 05:25:00,
2013-03-24 01:30:00,75.0,72.5,29.87,SSE,157,0.0,3.0,92,0.00,,,0.00,0.0,meteohub,2013-03-24 05:30:00,
2013-03-24 01:35:00,75.0,72.5,29.87,SSE,155,2.0,3.0,92,0.00,,,0.00,0.0,meteohub,2013-03-24 05:35:00,
2013-03-24 01:40:00,74.8,72.3,29.87,SE,138,1.0,3.0,92,0.00,,,0.00,0.0,meteohub,2013-03-24 05:40:00,
2013-03-24 01:45:00,75.0,72.9,29.87,SSE,159,1.0,3.0,93,0.00,,,0.00,0.0,meteohub,2013-03-24 05:45:00,
2013-03-24 01:50:00,75.0,72.9,29.87,SSE,159,0.0,4.0,93,0.00,,,0.00,0.0,meteohub,2013-03-24 05:50:00,
2013-03-24 01:55:00,74.8,72.7,29.86,SSE,159,1.0,4.0,93,0.00,,,0.00,0.0,meteohub,2013-03-24 05:55:00,
2013-03-24 02:00:00,74.8,72.7,29.86,SE,140,1.0,3.0,93,0.00,,,0.00,0.0,meteohub,2013-03-24 06:00:00,
2013-03-24 02:05:00,74.8,72.7,29.86,SE,136,2.0,3.0,93,0.00,,,0.00,0.0,meteohub,2013-03-24 06:05:00,
2013-03-24 02:10:00,74.7,72.5,29.86,SE,139,3.0,3.0,93,0.00,,,0.00,0.0,meteohub,2013-03-24 06:10:00,
2013-03-24 02:15:00,74.7,72.5,29.86,SE,136,3.0,4.0,93,0.00,,,0.00,0.0,meteohub,2013-03-24 06:15:00,
2013-03-24 02:20:00,74.7,72.5,29.86,SE,130,3.0,4.0,93,0.00,,,0.00,0.0,meteohub,2013-03-24 06:20:00,
2013-03-24 02:25:00,74.7,72.9,29.85,SE,142,1.0,5.0,94,0.00,,,0.00,0.0,meteohub,2013-03-24 06:25:00,
2013-03-24 02:30:00,74.7,72.9,29.85,SE,143,2.0,5.0,94,0.00,,,0.00,0.0,meteohub,2013-03-24 06:30:00,
2013-03-24 02:35:00,74.7,72.9,29.85,SSE,163,3.0,5.0,94,0.00,,,0.00,0.0,meteohub,2013-03-24 06:35:00,
2013-03-24 02:41:00,74.7,72.9,29.84,SSE,163,1.0,7.0,94,0.00,,,0.00,0.0,meteohub,2013-03-24 06:41:00,
2013-03-24 02:46:00,74.7,72.9,29.84,SE,142,5.0,7.0,94,0.00,,,0.00,0.0,meteohub,2013-03-24 06:46:00,
2013-03-24 02:50:00,74.7,72.9,29.84,SSE,166,2.0,7.0,94,0.00,,,0.00,0.0,meteohub,2013-03-24 06:50:00,
2013-03-24 02:55:00,74.7,72.9,29.84,SSE,159,4.0,6.0,94,0.00,,,0.00,0.0,meteohub,2013-03-24 06:55:00,
2013-03-24 03:00:00,74.7,72.9,29.84,SSE,159,3.0,7.0,94,0.00,,,0.00,0.0,meteohub,2013-03-24 07:00:00,
2013-03-24 03:06:00,74.5,73.0,29.83,SE,144,4.0,7.0,95,0.00,,,0.00,0.0,meteohub,2013-03-24 07:06:00,
2013-03-24 03:11:00,74.5,73.0,29.83,SSE,163,3.0,6.0,95,0.00,,,0.00,0.0,meteohub,2013-03-24 07:11:00,
2013-03-24 03:16:00,74.5,73.0,29.83,SSE,155,5.0,6.0,95,0.00,,,0.00,0.0,meteohub,2013-03-24 07:16:00,
2013-03-24 03:21:00,74.5,73.0,29.83,South,169,2.0,8.0,95,0.00,,,0.00,0.0,meteohub,2013-03-24 07:21:00,
2013-03-24 03:26:00,74.5,73.0,29.83,SSE,148,4.0,8.0,95,0.00,,,0.00,0.0,meteohub,2013-03-24 07:26:00,
2013-03-24 03:31:00,74.5,73.0,29.82,SSE,164,5.0,8.0,95,0.00,,,0.00,0.0,meteohub,2013-03-24 07:31:00,
2013-03-24 03:36:00,74.5,73.0,29.82,SSE,157,5.0,6.0,95,0.00,,,0.00,0.0,meteohub,2013-03-24 07:36:00,
2013-03-24 03:41:00,74.5,73.2,29.82,SSE,163,5.0,6.0,96,0.00,,,0.00,0.0,meteohub,2013-03-24 07:41:00,
2013-03-24 03:46:00,74.5,73.2,29.82,SSE,166,4.0,8.0,96,0.00,,,0.00,0.0,meteohub,2013-03-24 07:46:00,
2013-03-24 03:51:00,74.5,73.2,29.82,South,175,6.0,8.0,96,0.00,,,0.00,0.0,meteohub,2013-03-24 07:51:00,
2013-03-24 03:56:00,74.5,73.2,29.82,SSE,147,4.0,8.0,96,0.00,,,0.00,0.0,meteohub,2013-03-24 07:56:00,
2013-03-24 04:01:00,74.5,73.2,29.81,SSE,158,4.0,8.0,96,0.00,,,0.00,0.0,meteohub,2013-03-24 08:01:00,
2013-03-24 04:06:00,74.5,73.2,29.81,SSE,152,6.0,8.0,96,0.00,,,0.00,0.0,meteohub,2013-03-24 08:06:00,
2013-03-24 04:11:00,74.5,73.2,29.81,South,170,3.0,8.0,96,0.00,,,0.00,0.0,meteohub,2013-03-24 08:11:00,
2013-03-24 04:16:00,74.5,73.2,29.81,South,173,3.0,8.0,96,0.00,,,0.00,0.0,meteohub,2013-03-24 08:16:00,
2013-03-24 04:22:00,74.5,73.2,29.81,SSE,167,5.0,7.0,96,0.00,,,0.00,0.0,meteohub,2013-03-24 08:22:00,
2013-03-24 04:27:00,74.3,73.0,29.81,SSE,163,4.0,7.0,96,0.00,,,0.00,0.0,meteohub,2013-03-24 08:27:00,
2013-03-24 04:32:00,74.5,73.2,29.81,South,182,6.0,7.0,96,0.00,,,0.00,0.0,meteohub,2013-03-24 08:32:00,
2013-03-24 04:37:00,74.5,73.2,29.81,SSE,165,4.0,7.0,96,0.00,,,0.00,0.0,meteohub,2013-03-24 08:37:00,
2013-03-24 04:42:00,74.5,73.2,29.81,South,180,4.0,9.0,96,0.00,,,0.00,0.0,meteohub,2013-03-24 08:42:00,
2013-03-24 04:47:00,74.5,73.2,29.81,SSE,162,5.0,9.0,96,0.00,,,0.00,0.0,meteohub,2013-03-24 08:47:00,
2013-03-24 04:52:00,74.5,73.2,29.81,SSE,149,5.0,9.0,96,0.00,,,0.00,0.0,meteohub,2013-03-24 08:52:00,
2013-03-24 04:57:00,74.5,73.2,29.81,SSE,165,4.0,8.0,96,0.00,,,0.00,0.0,meteohub,2013-03-24 08:57:00,
2013-03-24 05:02:00,74.5,73.2,29.80,South,170,5.0,8.0,96,0.00,,,0.00,0.0,meteohub,2013-03-24 09:02:00,
2013-03-24 05:07:00,74.5,73.2,29.80,South,173,3.0,8.0,96,0.00,,,0.00,0.0,meteohub,2013-03-24 09:07:00,
2013-03-24 05:12:00,74.3,73.0,29.80,SSE,151,5.0,8.0,96,0.00,,,0.00,0.0,meteohub,2013-03-24 09:12:00,
2013-03-24 05:17:00,74.5,73.2,29.80,South,173,4.0,7.0,96,0.00,,,0.00,0.0,meteohub,2013-03-24 09:17:00,
2013-03-24 05:22:00,74.3,73.0,29.80,South,179,2.0,7.0,96,0.00,,,0.00,0.0,meteohub,2013-03-24 09:22:00,
2013-03-24 05:27:00,74.3,73.0,29.80,South,173,4.0,7.0,96,0.00,,,0.00,0.0,meteohub,2013-03-24 09:27:00,
2013-03-24 05:32:00,74.3,73.0,29.80,South,184,5.0,7.0,96,0.00,,,0.00,0.0,meteohub,2013-03-24 09:32:00,
2013-03-24 05:37:00,74.3,73.0,29.80,South,169,4.0,9.0,96,0.00,,,0.00,0.0,meteohub,2013-03-24 09:37:00,
2013-03-24 05:42:00,74.3,73.0,29.79,South,170,3.0,9.0,96,0.00,,,0.00,0.0,meteohub,2013-03-24 09:42:00,
2013-03-24 05:47:00,74.3,73.0,29.79,SSE,165,5.0,9.0,96,0.00,,,0.00,0.0,meteohub,2013-03-24 09:47:00,
2013-03-24 05:52:00,74.1,72.9,29.79,South,176,5.0,7.0,96,0.00,,,0.00,0.0,meteohub,2013-03-24 09:52:00,
2013-03-24 05:57:00,74.3,73.0,29.79,South,173,3.0,8.0,96,0.00,,,0.00,0.0,meteohub,2013-03-24 09:57:00,
2013-03-24 06:02:00,74.1,72.9,29.79,South,170,3.0,9.0,96,0.00,,,0.00,0.0,meteohub,2013-03-24 10:02:00,
2013-03-24 06:07:00,74.1,72.9,29.79,South,169,4.0,9.0,96,0.00,,,0.00,0.0,meteohub,2013-03-24 10:07:00,
2013-03-24 06:12:00,74.1,72.9,29.79,South,186,6.0,9.0,96,0.00,,,0.00,0.0,meteohub,2013-03-24 10:12:00,
2013-03-24 06:17:00,74.3,73.0,29.79,SSE,165,4.0,8.0,96,0.00,,,0.00,0.0,meteohub,2013-03-24 10:17:00,
2013-03-24 06:22:00,74.3,73.0,29.79,SSE,155,8.0,9.0,96,0.00,,,0.00,0.0,meteohub,2013-03-24 10:22:00,
2013-03-24 06:27:00,74.5,73.2,29.79,South,169,6.0,9.0,96,0.00,,,0.00,0.0,meteohub,2013-03-24 10:27:00,
2013-03-24 06:32:00,74.5,73.2,29.79,South,171,6.0,10.0,96,0.00,,,0.00,0.0,meteohub,2013-03-24 10:32:00,
2013-03-24 06:37:00,74.5,73.2,29.79,South,173,7.0,10.0,96,0.00,,,0.00,0.0,meteohub,2013-03-24 10:37:00,
2013-03-24 06:42:00,74.5,73.2,29.79,South,186,5.0,10.0,96,0.00,,,0.00,0.0,meteohub,2013-03-24 10:42:00,
2013-03-24 06:47:00,74.5,73.2,29.79,South,171,9.0,12.0,96,0.00,,,0.00,0.0,meteohub,2013-03-24 10:47:00,
2013-03-24 06:52:00,74.5,73.2,29.78,South,173,6.0,12.0,96,0.00,,,0.00,0.0,meteohub,2013-03-24 10:52:00,
2013-03-24 06:57:00,74.5,73.2,29.78,South,186,6.0,12.0,96,0.00,,,0.00,0.0,meteohub,2013-03-24 10:57:00,
2013-03-24 07:02:00,74.5,73.2,29.78,South,171,6.0,10.0,96,0.00,,,0.00,0.0,meteohub,2013-03-24 11:02:00,
2013-03-24 07:07:00,74.7,73.4,29.78,South,171,8.0,10.0,96,0.00,,,0.00,0.0,meteohub,2013-03-24 11:07:00,
2013-03-24 07:12:00,74.7,73.4,29.78,South,173,9.0,10.0,96,0.00,,,0.00,0.0,meteohub,2013-03-24 11:12:00,
2013-03-24 07:17:00,74.7,73.2,29.78,South,178,7.0,12.0,95,0.00,,,0.00,0.0,meteohub,2013-03-24 11:17:00,
2013-03-24 07:22:00,74.5,73.0,29.78,South,182,10.0,12.0,95,0.00,,,0.00,5.0,meteohub,2013-03-24 11:22:00,
2013-03-24 07:27:00,74.7,73.2,29.78,SSW,194,7.0,12.0,95,0.00,,,0.00,7.0,meteohub,2013-03-24 11:27:00,
2013-03-24 07:32:00,74.7,73.2,29.78,South,187,10.0,11.0,95,0.00,,,0.00,12.0,meteohub,2013-03-24 11:32:00,
2013-03-24 07:37:00,74.8,73.2,29.78,South,173,6.0,12.0,95,0.00,,,0.00,18.0,meteohub,2013-03-24 11:37:00,
2013-03-24 07:42:00,74.8,73.0,29.78,SSW,200,6.0,12.0,94,0.00,,,0.00,25.0,meteohub,2013-03-24 11:42:00,
2013-03-24 07:47:00,75.0,73.2,29.78,South,190,8.0,12.0,94,0.00,,,0.00,30.0,meteohub,2013-03-24 11:47:00,
2013-03-24 07:54:00,75.0,73.2,29.78,South,180,9.0,14.0,94,0.00,,,0.00,39.0,meteohub,2013-03-24 11:54:00,
2013-03-24 07:59:00,75.4,73.6,29.77,South,189,7.0,14.0,94,0.00,,,0.00,58.0,meteohub,2013-03-24 11:59:00,
2013-03-24 08:04:00,75.6,73.4,29.77,South,172,8.0,16.0,93,0.00,,,0.00,79.0,meteohub,2013-03-24 12:04:00,
2013-03-24 08:09:00,75.6,73.4,29.77,South,184,14.0,16.0,93,0.00,,,0.00,100.0,meteohub,2013-03-24 12:09:00,
2013-03-24 08:14:00,75.7,73.6,29.77,South,188,7.0,16.0,93,0.00,,,0.00,72.0,meteohub,2013-03-24 12:14:00,
2013-03-24 08:19:00,75.9,73.4,29.77,SSW,194,8.0,16.0,92,0.00,,,0.00,72.0,meteohub,2013-03-24 12:19:00,
2013-03-24 08:24:00,76.3,73.8,29.77,South,191,12.0,21.0,92,0.00,,,0.00,104.0,meteohub,2013-03-24 12:24:00,
2013-03-24 08:29:00,76.3,73.4,29.77,South,184,12.0,21.0,91,0.00,,,0.00,162.0,meteohub,2013-03-24 12:29:00,
2013-03-24 08:34:00,76.5,73.6,29.77,South,175,10.0,21.0,91,0.00,,,0.00,172.0,meteohub,2013-03-24 12:34:00,
2013-03-24 08:39:00,76.6,73.4,29.77,SSW,198,17.0,19.0,90,0.00,,,0.00,188.0,meteohub,2013-03-24 12:39:00,
2013-03-24 08:44:00,76.8,73.6,29.77,South,184,9.0,19.0,90,0.00,,,0.00,213.0,meteohub,2013-03-24 12:44:00,
2013-03-24 08:49:00,77.2,73.8,29.77,SSW,198,10.0,18.0,89,0.00,,,0.00,218.0,meteohub,2013-03-24 12:49:00,
2013-03-24 08:54:00,77.4,73.6,29.77,SSW,202,14.0,18.0,88,0.00,,,0.00,236.0,meteohub,2013-03-24 12:54:00,
2013-03-24 08:59:00,77.5,73.4,29.77,South,171,8.0,18.0,87,0.00,,,0.00,144.0,meteohub,2013-03-24 12:59:00,
2013-03-24 09:04:00,77.9,73.4,29.77,South,175,11.0,18.0,86,0.00,,,0.00,267.0,meteohub,2013-03-24 13:04:00,
2013-03-24 09:09:00,78.3,73.4,29.76,South,182,9.0,18.0,85,0.00,,,0.00,93.0,meteohub,2013-03-24 13:09:00,
2013-03-24 09:14:00,78.4,73.6,29.77,South,172,7.0,21.0,85,0.00,,,0.00,329.0,meteohub,2013-03-24 13:14:00,
2013-03-24 09:19:00,78.8,73.2,29.76,South,186,10.0,21.0,83,0.00,,,0.00,325.0,meteohub,2013-03-24 13:19:00,
2013-03-24 09:24:00,79.0,73.4,29.77,SSW,206,6.0,21.0,83,0.00,,,0.00,345.0,meteohub,2013-03-24 13:24:00,
2013-03-24 09:29:00,79.0,73.4,29.77,South,180,11.0,18.0,83,0.00,,,0.00,100.0,meteohub,2013-03-24 13:29:00,
2013-03-24 09:34:00,79.3,73.4,29.77,SSW,198,15.0,24.0,82,0.00,,,0.00,165.0,meteohub,2013-03-24 13:34:00,
2013-03-24 09:39:00,79.5,73.6,29.77,SSW,209,8.0,24.0,82,0.00,,,0.00,397.0,meteohub,2013-03-24 13:39:00,
2013-03-24 09:45:00,79.7,73.4,29.77,SW,215,15.0,24.0,81,0.00,,,0.00,454.0,meteohub,2013-03-24 13:45:00,
2013-03-24 09:50:00,80.1,73.4,29.77,SW,217,17.0,22.0,80,0.00,,,0.00,455.0,meteohub,2013-03-24 13:50:00,
2013-03-24 09:55:00,80.4,73.8,29.77,South,175,17.0,22.0,80,0.00,,,0.00,468.0,meteohub,2013-03-24 13:55:00,
2013-03-24 10:00:00,80.2,73.0,29.77,SSW,200,10.0,22.0,79,0.00,,,0.00,541.0,meteohub,2013-03-24 14:00:00,
2013-03-24 10:05:00,80.4,72.9,29.78,SSW,194,13.0,24.0,78,0.00,,,0.00,271.0,meteohub,2013-03-24 14:05:00,
2013-03-24 10:10:00,80.6,73.0,29.77,SSW,205,19.0,24.0,78,0.00,,,0.00,223.0,meteohub,2013-03-24 14:10:00,
2013-03-24 10:15:00,80.8,72.9,29.78,SW,217,19.0,24.0,77,0.00,,,0.00,188.0,meteohub,2013-03-24 14:15:00,
2013-03-24 10:20:00,80.4,72.5,29.78,SSW,194,12.0,24.0,77,0.00,,,0.00,193.0,meteohub,2013-03-24 14:20:00,
2013-03-24 10:52:00,81.0,72.3,29.78,SSW,194,17.0,23.0,75,0.00,,,0.00,151.0,meteohub,2013-03-24 14:52:00,
2013-03-24 10:57:00,81.1,72.5,29.78,SSW,196,22.0,24.0,75,0.00,,,0.00,206.0,meteohub,2013-03-24 14:57:00,
2013-03-24 11:02:00,81.7,72.5,29.78,SSW,205,17.0,27.0,74,0.00,,,0.00,232.0,meteohub,2013-03-24 15:02:00,
2013-03-24 11:08:00,82.8,73.2,29.78,SW,215,23.0,27.0,73,0.00,,,0.00,745.0,meteohub,2013-03-24 15:08:00,
2013-03-24 11:13:00,82.9,72.5,29.80,SSW,201,19.0,27.0,71,0.00,,,0.00,807.0,meteohub,2013-03-24 15:13:00,
2013-03-24 11:18:00,82.9,73.0,29.78,SSW,209,15.0,32.0,72,0.00,,,0.00,809.0,meteohub,2013-03-24 15:18:00,
2013-03-24 11:23:00,83.5,73.6,29.78,WSW,240,10.0,32.0,72,0.00,,,0.00,278.0,meteohub,2013-03-24 15:23:00,
2013-03-24 11:28:00,82.9,73.0,29.78,SW,223,12.0,31.0,72,0.00,,,0.00,195.0,meteohub,2013-03-24 15:28:00,
2013-03-24 11:33:00,82.2,72.7,29.79,SW,221,19.0,23.0,73,0.00,,,0.00,236.0,meteohub,2013-03-24 15:33:00,
2013-03-24 11:38:00,82.6,72.1,29.78,SSW,201,17.0,26.0,71,0.00,,,0.00,269.0,meteohub,2013-03-24 15:38:00,
2013-03-24 11:43:00,84.0,73.2,29.78,SW,217,16.0,26.0,70,0.00,,,0.00,860.0,meteohub,2013-03-24 15:43:00,
2013-03-24 11:48:00,84.2,73.4,29.77,SW,223,20.0,26.0,70,0.00,,,0.00,837.0,meteohub,2013-03-24 15:48:00,
2013-03-24 11:53:00,84.9,73.2,29.77,SSW,194,16.0,27.0,68,0.00,,,0.00,837.0,meteohub,2013-03-24 15:53:00,
2013-03-24 11:58:00,84.9,73.2,29.77,SW,220,22.0,27.0,68,0.00,,,0.00,777.0,meteohub,2013-03-24 15:58:00,
2013-03-24 12:03:00,84.4,72.7,29.78,SW,216,16.0,27.0,68,0.00,,,0.00,777.0,meteohub,2013-03-24 16:03:00,
2013-03-24 12:08:00,83.5,72.3,29.78,SSW,202,19.0,28.0,69,0.00,,,0.00,267.0,meteohub,2013-03-24 16:08:00,
2013-03-24 12:13:00,83.8,72.1,29.78,SW,215,20.0,28.0,68,0.00,,,0.00,241.0,meteohub,2013-03-24 16:13:00,
2013-03-24 12:18:00,84.9,73.2,29.77,SSW,204,15.0,30.0,68,0.00,,,0.00,817.0,meteohub,2013-03-24 16:18:00,
2013-03-24 12:23:00,84.6,72.3,29.78,SW,225,18.0,30.0,67,0.00,,,0.00,220.0,meteohub,2013-03-24 16:23:00,
2013-03-24 12:28:00,84.0,72.3,29.77,SW,226,14.0,29.0,68,0.00,,,0.00,188.0,meteohub,2013-03-24 16:28:00,
2013-03-24 12:33:00,85.3,72.7,29.77,SSW,203,23.0,28.0,66,0.00,,,0.00,905.0,meteohub,2013-03-24 16:33:00,
2013-03-24 12:38:00,85.5,72.3,29.77,SW,219,19.0,32.0,65,0.00,,,0.00,856.0,meteohub,2013-03-24 16:38:00,
2013-03-24 12:43:00,85.5,72.3,29.77,SSW,209,14.0,32.0,65,0.00,,,0.00,909.0,meteohub,2013-03-24 16:43:00,
2013-03-24 12:48:00,84.7,72.5,29.77,SSW,207,16.0,32.0,67,0.00,,,0.00,842.0,meteohub,2013-03-24 16:48:00,
2013-03-24 12:53:00,86.0,72.9,29.77,SSW,204,17.0,26.0,65,0.00,,,0.00,882.0,meteohub,2013-03-24 16:53:00,
2013-03-24 12:58:00,85.6,72.5,29.77,SW,217,24.0,25.0,65,0.00,,,0.00,856.0,meteohub,2013-03-24 16:58:00,
2013-03-24 13:03:00,86.5,72.5,29.77,SSW,210,12.0,28.0,63,0.00,,,0.00,898.0,meteohub,2013-03-24 17:03:00,
2013-03-24 13:08:00,86.0,72.0,29.76,SSW,198,17.0,29.0,63,0.00,,,0.00,911.0,meteohub,2013-03-24 17:08:00,
2013-03-24 13:13:00,86.7,72.1,29.76,SW,234,26.0,34.0,62,0.00,,,0.00,916.0,meteohub,2013-03-24 17:13:00,
2013-03-24 13:18:00,86.5,72.5,29.76,SSW,200,15.0,34.0,63,0.00,,,0.00,874.0,meteohub,2013-03-24 17:18:00,
2013-03-24 13:23:00,86.9,71.8,29.76,SW,214,22.0,34.0,61,0.00,,,0.00,896.0,meteohub,2013-03-24 17:23:00,
2013-03-24 13:28:00,87.3,72.1,29.76,SW,228,14.0,28.0,61,0.00,,,0.00,858.0,meteohub,2013-03-24 17:28:00,
2013-03-24 13:33:00,86.7,71.6,29.75,SW,217,19.0,28.0,61,0.00,,,0.00,928.0,meteohub,2013-03-24 17:33:00,
2013-03-24 13:38:00,87.3,72.1,29.76,SSW,207,20.0,28.0,61,0.00,,,0.00,830.0,meteohub,2013-03-24 17:38:00,
2013-03-24 13:43:00,87.4,71.4,29.76,SW,227,18.0,27.0,59,0.00,,,0.00,895.0,meteohub,2013-03-24 17:43:00,
2013-03-24 13:48:00,86.7,71.6,29.76,SW,215,15.0,30.0,61,0.00,,,0.00,199.0,meteohub,2013-03-24 17:48:00,
2013-03-24 13:53:00,87.1,72.0,29.76,WSW,245,25.0,30.0,61,0.00,,,0.00,898.0,meteohub,2013-03-24 17:53:00,
2013-03-24 13:58:00,87.3,72.1,29.75,SSW,212,21.0,26.0,61,0.00,,,0.00,831.0,meteohub,2013-03-24 17:58:00,
2013-03-24 14:03:00,87.3,73.0,29.75,WSW,242,18.0,30.0,63,0.00,,,0.00,889.0,meteohub,2013-03-24 18:03:00,
2013-03-24 14:08:00,87.3,71.6,29.75,SW,215,21.0,30.0,60,0.00,,,0.00,923.0,meteohub,2013-03-24 18:08:00,
2013-03-24 14:13:00,87.3,71.2,29.75,SW,221,11.0,30.0,59,0.00,,,0.00,809.0,meteohub,2013-03-24 18:13:00,
2013-03-24 14:18:00,88.0,71.8,29.74,WSW,250,12.0,30.0,59,0.00,,,0.00,800.0,meteohub,2013-03-24 18:18:00,
2013-03-24 14:23:00,87.6,71.1,29.74,SSW,202,17.0,30.0,58,0.00,,,0.00,821.0,meteohub,2013-03-24 18:23:00,
2013-03-24 14:29:00,87.6,72.0,29.74,SSW,202,11.0,29.0,60,0.00,,,0.00,810.0,meteohub,2013-03-24 18:29:00,
2013-03-24 14:34:00,87.6,71.1,29.73,WSW,257,18.0,29.0,58,0.00,,,0.00,833.0,meteohub,2013-03-24 18:34:00,
2013-03-24 14:39:00,87.6,71.6,29.73,SSW,202,10.0,27.0,59,0.00,,,0.00,798.0,meteohub,2013-03-24 18:39:00,
2013-03-24 14:44:00,87.6,71.6,29.73,SSW,211,8.0,27.0,59,0.00,,,0.00,229.0,meteohub,2013-03-24 18:44:00,
2013-03-24 14:49:00,87.6,72.0,29.73,West,267,24.0,27.0,60,0.00,,,0.00,831.0,meteohub,2013-03-24 18:49:00,
2013-03-24 14:54:00,87.4,71.4,29.72,SW,228,21.0,27.0,59,0.00,,,0.00,258.0,meteohub,2013-03-24 18:54:00,
2013-03-24 14:59:00,87.6,71.6,29.72,SW,226,17.0,27.0,59,0.00,,,0.00,830.0,meteohub,2013-03-24 18:59:00,
2013-03-24 15:04:00,87.4,71.4,29.71,SW,219,18.0,28.0,59,0.00,,,0.00,837.0,meteohub,2013-03-24 19:04:00,
2013-03-24 15:09:00,87.3,71.2,29.70,SW,227,12.0,28.0,59,0.00,,,0.00,837.0,meteohub,2013-03-24 19:09:00,
2013-03-24 15:14:00,87.8,71.6,29.70,SSW,204,17.0,24.0,59,0.00,,,0.00,837.0,meteohub,2013-03-24 19:14:00,
2013-03-24 15:19:00,88.0,71.8,29.70,WSW,257,17.0,25.0,59,0.00,,,0.00,772.0,meteohub,2013-03-24 19:19:00,
2013-03-24 15:24:00,87.6,72.0,29.70,SW,218,11.0,25.0,60,0.00,,,0.00,784.0,meteohub,2013-03-24 19:24:00,
2013-03-24 15:29:00,88.3,71.6,29.71,SSW,206,19.0,25.0,58,0.00,,,0.00,772.0,meteohub,2013-03-24 19:29:00,
2013-03-24 15:34:00,88.3,70.2,29.70,SW,228,26.0,26.0,55,0.00,,,0.00,742.0,meteohub,2013-03-24 19:34:00,
2013-03-24 15:39:00,88.2,70.5,29.70,WSW,244,13.0,29.0,56,0.00,,,0.00,710.0,meteohub,2013-03-24 19:39:00,
2013-03-24 15:44:00,87.6,70.0,29.70,WSW,249,22.0,30.0,56,0.00,,,0.00,740.0,meteohub,2013-03-24 19:44:00,
2013-03-24 15:49:00,87.8,71.2,29.70,SW,236,11.0,30.0,58,0.00,,,0.00,717.0,meteohub,2013-03-24 19:49:00,
2013-03-24 15:54:00,87.1,70.5,29.70,SW,223,19.0,29.0,58,0.00,,,0.00,643.0,meteohub,2013-03-24 19:54:00,
2013-03-24 15:59:00,86.2,70.2,29.69,SSW,200,10.0,32.0,59,0.00,,,0.00,223.0,meteohub,2013-03-24 19:59:00,
2013-03-24 16:04:00,86.5,71.1,29.69,SW,214,17.0,32.0,60,0.00,,,0.00,221.0,meteohub,2013-03-24 20:04:00,
2013-03-24 16:09:00,86.5,71.1,29.70,WSW,244,18.0,32.0,60,0.00,,,0.00,141.0,meteohub,2013-03-24 20:09:00,
2013-03-24 16:14:00,85.8,70.9,29.70,WSW,243,20.0,28.0,61,0.00,,,0.00,183.0,meteohub,2013-03-24 20:14:00,
2013-03-24 16:19:00,86.4,71.2,29.70,SW,218,13.0,27.0,61,0.00,,,0.00,202.0,meteohub,2013-03-24 20:19:00,
2013-03-24 16:24:00,86.2,69.6,29.70,West,261,28.0,28.0,58,0.00,,,0.00,615.0,meteohub,2013-03-24 20:24:00,
2013-03-24 16:29:00,86.9,70.3,29.70,WSW,246,22.0,29.0,58,0.00,,,0.00,599.0,meteohub,2013-03-24 20:29:00,
2013-03-24 16:34:00,86.5,70.0,29.70,SSW,209,21.0,29.0,58,0.00,,,0.00,485.0,meteohub,2013-03-24 20:34:00,
2013-03-24 16:39:00,85.8,70.3,29.71,SW,217,14.0,29.0,60,0.00,,,0.00,174.0,meteohub,2013-03-24 20:39:00,
2013-03-24 16:44:00,86.4,71.2,29.70,SSW,213,14.0,28.0,61,0.00,,,0.00,230.0,meteohub,2013-03-24 20:44:00,
2013-03-24 16:49:00,86.7,70.7,29.70,WSW,240,13.0,27.0,59,0.00,,,0.00,519.0,meteohub,2013-03-24 20:49:00,
2013-03-24 16:55:00,86.0,70.5,29.70,SSW,197,12.0,27.0,60,0.00,,,0.00,485.0,meteohub,2013-03-24 20:55:00,
2013-03-24 17:00:00,85.8,69.3,29.70,West,263,12.0,26.0,58,0.00,,,0.00,128.0,meteohub,2013-03-24 21:00:00,
2013-03-24 17:05:00,85.8,69.8,29.70,SW,225,12.0,26.0,59,0.00,,,0.00,436.0,meteohub,2013-03-24 21:05:00,
2013-03-24 17:10:00,86.2,69.6,29.70,SW,231,11.0,29.0,58,0.00,,,0.00,399.0,meteohub,2013-03-24 21:10:00,
2013-03-24 17:15:00,85.5,70.0,29.69,WSW,256,17.0,29.0,60,0.00,,,0.00,123.0,meteohub,2013-03-24 21:15:00,
2013-03-24 17:20:00,85.6,70.2,29.70,WSW,237,18.0,29.0,60,0.00,,,0.00,367.0,meteohub,2013-03-24 21:20:00,
2013-03-24 17:25:00,85.5,70.5,29.70,SW,234,10.0,29.0,61,0.00,,,0.00,373.0,meteohub,2013-03-24 21:25:00,
2013-03-24 17:30:00,85.5,70.5,29.69,SW,231,10.0,30.0,61,0.00,,,0.00,381.0,meteohub,2013-03-24 21:30:00,
2013-03-24 17:35:00,85.3,70.3,29.68,SW,216,20.0,30.0,61,0.00,,,0.00,323.0,meteohub,2013-03-24 21:35:00,
2013-03-24 17:40:00,84.9,70.9,29.68,SSW,209,10.0,30.0,63,0.00,,,0.00,297.0,meteohub,2013-03-24 21:40:00,
2013-03-24 17:45:00,84.7,70.7,29.68,SW,227,10.0,24.0,63,0.00,,,0.00,248.0,meteohub,2013-03-24 21:45:00,
2013-03-24 17:50:00,84.9,70.5,29.70,SW,234,10.0,24.0,62,0.00,,,0.00,283.0,meteohub,2013-03-24 21:50:00,
2013-03-24 17:55:00,84.7,70.3,29.70,SW,234,11.0,27.0,62,0.00,,,0.00,269.0,meteohub,2013-03-24 21:55:00,
2013-03-24 18:01:00,84.7,70.7,29.70,SW,226,11.0,28.0,63,0.00,,,0.00,260.0,meteohub,2013-03-24 22:01:00,
2013-03-24 18:06:00,84.7,71.2,29.70,SW,233,7.0,28.0,64,0.00,,,0.00,111.0,meteohub,2013-03-24 22:06:00,
2013-03-24 18:11:00,84.0,70.5,29.70,SW,232,17.0,22.0,64,0.00,,,0.00,211.0,meteohub,2013-03-24 22:11:00,
2013-03-24 18:16:00,83.8,70.3,29.69,SW,229,17.0,26.0,64,0.00,,,0.00,227.0,meteohub,2013-03-24 22:16:00,
2013-03-24 18:21:00,84.0,70.0,29.69,SW,236,24.0,26.0,63,0.00,,,0.00,179.0,meteohub,2013-03-24 22:21:00,
2013-03-24 18:26:00,83.8,70.3,29.70,SW,230,10.0,36.0,64,0.00,,,0.00,72.0,meteohub,2013-03-24 22:26:00,
2013-03-24 18:31:00,83.5,70.0,29.69,SW,227,16.0,36.0,64,0.00,,,0.00,120.0,meteohub,2013-03-24 22:31:00,
2013-03-24 18:37:00,83.1,70.2,29.70,WSW,254,11.0,36.0,65,0.00,,,0.00,54.0,meteohub,2013-03-24 22:37:00,
2013-03-24 18:42:00,82.9,70.0,29.70,WSW,240,15.0,26.0,65,0.00,,,0.00,86.0,meteohub,2013-03-24 22:42:00,
2013-03-24 18:47:00,82.8,70.2,29.71,SW,227,15.0,26.0,66,0.00,,,0.00,35.0,meteohub,2013-03-24 22:47:00,
2013-03-24 18:52:00,82.6,70.5,29.71,West,262,12.0,27.0,67,0.00,,,0.00,44.0,meteohub,2013-03-24 22:52:00,
2013-03-24 18:57:00,82.2,70.2,29.72,WSW,252,12.0,27.0,67,0.00,,,0.00,28.0,meteohub,2013-03-24 22:57:00,
2013-03-24 19:02:00,82.2,70.2,29.73,WSW,240,13.0,25.0,67,0.00,,,0.00,26.0,meteohub,2013-03-24 23:02:00,
2013-03-24 19:07:00,82.0,70.3,29.73,WSW,242,16.0,25.0,68,0.00,,,0.00,26.0,meteohub,2013-03-24 23:07:00,
2013-03-24 19:12:00,82.0,70.9,29.73,West,269,13.0,25.0,69,0.00,,,0.00,21.0,meteohub,2013-03-24 23:12:00,
2013-03-24 19:17:00,81.9,70.7,29.73,WSW,246,10.0,23.0,69,0.00,,,0.00,16.0,meteohub,2013-03-24 23:17:00,
2013-03-24 19:22:00,81.7,70.5,29.73,SW,226,9.0,20.0,69,0.00,,,0.00,11.0,meteohub,2013-03-24 23:22:00,
2013-03-24 19:27:00,81.3,70.5,29.73,WSW,240,9.0,21.0,70,0.00,,,0.00,7.0,meteohub,2013-03-24 23:27:00,
2013-03-24 19:34:00,81.1,70.3,29.73,SW,229,6.0,21.0,70,0.00,,,0.00,0.0,meteohub,2013-03-24 23:34:00,
2013-03-24 19:39:00,81.0,70.7,29.74,WSW,242,7.0,21.0,71,0.00,,,0.00,0.0,meteohub,2013-03-24 23:39:00,
2013-03-24 19:44:00,80.8,70.5,29.74,West,262,9.0,14.0,71,0.00,,,0.00,0.0,meteohub,2013-03-24 23:44:00,
2013-03-24 19:49:00,80.8,70.9,29.74,WSW,238,4.0,14.0,72,0.00,,,0.00,0.0,meteohub,2013-03-24 23:49:00,
2013-03-24 19:54:00,80.6,70.7,29.74,West,263,3.0,14.0,72,0.00,,,0.00,0.0,meteohub,2013-03-24 23:54:00,
2013-03-24 19:59:00,80.4,70.5,29.75,WSW,243,4.0,12.0,72,0.00,,,0.00,0.0,meteohub,2013-03-24 23:59:00,
2013-03-24 20:04:00,80.4,70.9,29.75,WSW,245,7.0,11.0,73,0.00,,,0.00,0.0,meteohub,2013-03-25 00:04:00,
2013-03-24 20:09:00,80.2,70.9,29.75,WSW,242,6.0,10.0,73,0.00,,,0.00,0.0,meteohub,2013-03-25 00:09:00,
2013-03-24 20:14:00,80.2,70.9,29.75,WSW,243,5.0,10.0,73,0.00,,,0.00,0.0,meteohub,2013-03-25 00:14:00,
2013-03-24 20:19:00,80.2,70.9,29.75,West,264,3.0,10.0,73,0.00,,,0.00,0.0,meteohub,2013-03-25 00:19:00,
2013-03-24 20:24:00,80.1,71.1,29.76,WSW,255,2.0,9.0,74,0.00,,,0.00,0.0,meteohub,2013-03-25 00:24:00,
2013-03-24 20:29:00,80.1,71.1,29.75,WSW,254,2.0,6.0,74,0.00,,,0.00,0.0,meteohub,2013-03-25 00:29:00,
2013-03-24 20:35:00,80.1,71.1,29.75,WSW,238,5.0,6.0,74,0.00,,,0.00,0.0,meteohub,2013-03-25 00:35:00,
2013-03-24 20:40:00,79.9,70.9,29.75,WSW,246,3.0,7.0,74,0.00,,,0.00,0.0,meteohub,2013-03-25 00:40:00,
2013-03-24 20:45:00,79.9,70.9,29.77,NNE,13,7.0,7.0,74,0.00,,,0.00,0.0,meteohub,2013-03-25 00:45:00,
2013-03-24 20:50:00,78.3,67.6,29.77,NW,324,7.0,7.0,70,0.00,,,0.00,0.0,meteohub,2013-03-25 00:50:00,
2013-03-24 20:55:00,76.8,67.1,29.77,NNW,342,10.0,18.0,72,0.00,,,0.00,0.0,meteohub,2013-03-25 00:55:00,
2013-03-24 21:00:00,75.9,67.5,29.78,North,350,4.0,18.0,75,0.00,,,0.00,0.0,meteohub,2013-03-25 01:00:00,
2013-03-24 21:05:00,75.4,67.3,29.78,NW,317,7.0,15.0,76,0.00,,,0.00,0.0,meteohub,2013-03-25 01:05:00,
2013-03-24 21:10:00,75.0,67.6,29.78,NW,320,11.0,13.0,78,0.00,,,0.00,0.0,meteohub,2013-03-25 01:10:00,
2013-03-24 21:15:00,74.3,68.0,29.78,NNW,340,8.0,11.0,81,0.00,,,0.00,0.0,meteohub,2013-03-25 01:15:00,
2013-03-24 21:20:00,73.8,68.4,29.78,NW,312,6.0,12.0,83,0.00,,,0.00,0.0,meteohub,2013-03-25 01:20:00,
2013-03-24 21:25:00,73.0,68.5,29.78,North,355,4.0,12.0,86,0.00,,,0.00,0.0,meteohub,2013-03-25 01:25:00,
2013-03-24 21:30:00,72.7,68.9,29.78,NE,45,0.0,11.0,88,0.00,,,0.00,0.0,meteohub,2013-03-25 01:30:00,
2013-03-24 21:35:00,72.3,68.9,29.78,NNE,31,2.0,10.0,89,0.00,,,0.00,0.0,meteohub,2013-03-25 01:35:00,
2013-03-24 21:40:00,72.1,69.1,29.78,NE,34,2.0,8.0,90,0.00,,,0.00,0.0,meteohub,2013-03-25 01:40:00,
2013-03-24 21:45:00,72.1,69.4,29.78,NE,49,2.0,5.0,91,0.00,,,0.00,0.0,meteohub,2013-03-25 01:45:00,
2013-03-24 21:51:00,72.1,69.4,29.78,NE,34,3.0,5.0,91,0.00,,,0.00,0.0,meteohub,2013-03-25 01:51:00,
2013-03-24 21:57:00,72.1,69.6,29.78,NE,42,2.0,5.0,92,0.00,,,0.00,0.0,meteohub,2013-03-25 01:57:00,
2013-03-24 21:59:00,72.1,69.6,29.78,NE,38,2.0,5.0,92,0.00,,,0.00,0.0,meteohub,2013-03-25 01:59:00,
2013-03-24 22:07:00,72.3,69.8,29.78,East,98,1.0,4.0,92,0.00,,,0.00,0.0,meteohub,2013-03-25 02:07:00,
2013-03-24 22:12:00,72.1,69.6,29.78,SE,142,1.0,4.0,92,0.00,,,0.00,0.0,meteohub,2013-03-25 02:12:00,
2013-03-24 22:17:00,72.3,69.8,29.79,NW,305,3.0,3.0,92,0.00,,,0.00,0.0,meteohub,2013-03-25 02:17:00,
2013-03-24 22:22:00,72.3,69.8,29.78,WNW,292,0.0,6.0,92,0.00,,,0.00,0.0,meteohub,2013-03-25 02:22:00,
2013-03-24 22:27:00,72.5,70.0,29.78,WNW,292,0.0,6.0,92,0.00,,,0.00,0.0,meteohub,2013-03-25 02:27:00,
2013-03-24 22:32:00,72.3,69.8,29.78,WNW,292,0.0,6.0,92,0.00,,,0.00,0.0,meteohub,2013-03-25 02:32:00,
2013-03-24 22:37:00,72.3,70.2,29.78,West,280,0.0,3.0,93,0.00,,,0.00,0.0,meteohub,2013-03-25 02:37:00,
2013-03-24 22:42:00,72.3,70.5,29.78,West,280,0.0,2.0,94,0.00,,,0.00,0.0,meteohub,2013-03-25 02:42:00,
2013-03-24 22:47:00,72.1,70.0,29.78,West,280,0.0,2.0,93,0.00,,,0.00,0.0,meteohub,2013-03-25 02:47:00,
2013-03-24 22:52:00,72.1,70.3,29.78,West,280,0.0,2.0,94,0.00,,,0.00,0.0,meteohub,2013-03-25 02:52:00,
2013-03-24 22:57:00,72.3,70.5,29.78,West,280,0.0,2.0,94,0.00,,,0.00,0.0,meteohub,2013-03-25 02:57:00,
2013-03-24 23:02:00,72.3,70.5,29.78,West,280,1.0,2.0,94,0.00,,,0.00,0.0,meteohub,2013-03-25 03:02:00,
2013-03-24 23:07:00,72.5,70.7,29.78,SSW,201,1.0,2.0,94,0.00,,,0.00,0.0,meteohub,2013-03-25 03:07:00,
2013-03-24 23:12:00,72.5,70.7,29.77,SSW,201,2.0,3.0,94,0.00,,,0.00,0.0,meteohub,2013-03-25 03:12:00,
2013-03-24 23:17:00,72.5,70.7,29.77,SSW,201,1.0,3.0,94,0.00,,,0.00,0.0,meteohub,2013-03-25 03:17:00,
2013-03-24 23:22:00,72.5,70.7,29.77,SSW,201,0.0,3.0,94,0.00,,,0.00,0.0,meteohub,2013-03-25 03:22:00,
2013-03-24 23:27:00,72.7,70.9,29.77,SSW,192,3.0,3.0,94,0.00,,,0.00,0.0,meteohub,2013-03-25 03:27:00,
2013-03-24 23:32:00,72.7,70.9,29.77,South,176,2.0,4.0,94,0.00,,,0.00,0.0,meteohub,2013-03-25 03:32:00,
2013-03-24 23:37:00,72.7,70.9,29.77,South,170,3.0,5.0,94,0.00,,,0.00,0.0,meteohub,2013-03-25 03:37:00,
2013-03-24 23:42:00,72.7,70.9,29.77,SSE,163,3.0,5.0,94,0.00,,,0.00,0.0,meteohub,2013-03-25 03:42:00,
2013-03-24 23:47:00,72.7,70.9,29.77,SSW,192,4.0,5.0,94,0.00,,,0.00,0.0,meteohub,2013-03-25 03:47:00,
2013-03-24 23:52:00,72.9,71.1,29.77,South,178,1.0,5.0,94,0.00,,,0.00,0.0,meteohub,2013-03-25 03:52:00,
2013-03-24 23:57:00,72.9,71.1,29.77,South,178,0.0,5.0,94,0.00,,,0.00,0.0,meteohub,2013-03-25 03:57:00,